Time;durP1;ratioP1;P1;durP2;ratioP2;P2;SDS_P1;SDS_P2;PMS_P1;PMS_P2;Temp;Humidity;BMP_temperature;BMP_pressure;BME280_temperature;BME280_humidity;BME280_pressure;Samples;Min_cycle;Max_cycle;Signal;HPM_P1;HPM_P2
2022/03/22 00:02:10;;;;;;;49.15;35.70;;;;;;;;;;5063761;28;20050;-93
2022/03/22 00:04:36;;;;;;;49.30;35.17;;;;;;;;;;5064119;28;20069;-91
2022/03/22 00:07:02;;;;;;;48.90;34.15;;;;;;;;;;5064082;28;20077;-91
2022/03/22 00:09:29;;;;;;;47.53;33.88;;;;;;;;;;5063603;28;20098;-89
2022/03/22 00:11:56;;;;;;;48.72;34.25;;;;;;;;;;5062737;28;20498;-91
2022/03/22 00:14:23;;;;;;;46.28;32.67;;;;;;;;;;5045623;28;20399;-91
2022/03/22 00:16:49;;;;;;;45.95;33.25;;;;;;;;;;5063994;28;20044;-91
2022/03/22 00:19:16;;;;;;;50.05;33.67;;;;;;;;;;5064464;28;20048;-92
2022/03/22 00:21:42;;;;;;;46.65;32.20;;;;;;;;;;5047017;28;20484;-90
2022/03/22 00:24:08;;;;;;;44.40;31.80;;;;;;;;;;5064184;28;20110;-92
2022/03/22 00:26:34;;;;;;;46.90;31.55;;;;;;;;;;5063979;28;20411;-90
2022/03/22 00:29:02;;;;;;;46.63;32.25;;;;;;;;;;5047051;28;20443;-92
2022/03/22 00:31:28;;;;;;;43.47;30.42;;;;;;;;;;5063454;28;20087;-91
2022/03/22 00:33:54;;;;;;;46.60;33.40;;;;;;;;;;5063467;28;20036;-91
2022/03/22 00:36:20;;;;;;;45.53;32.15;;;;;;;;;;5063489;28;20040;-91
2022/03/22 00:38:46;;;;;;;46.20;29.50;;;;;;;;;;5046916;28;20082;-92
2022/03/22 00:41:13;;;;;;;45.45;31.98;;;;;;;;;;5079363;28;20131;-93
2022/03/22 00:43:40;;;;;;;45.85;30.00;;;;;;;;;;5062942;28;20020;-91
2022/03/22 00:46:06;;;;;;;44.85;32.13;;;;;;;;;;5062586;28;20048;-91
2022/03/22 00:48:33;;;;;;;43.40;29.42;;;;;;;;;;5060940;28;20055;-92
2022/03/22 00:50:59;;;;;;;48.90;32.10;;;;;;;;;;5061869;28;20043;-93
2022/03/22 00:53:26;;;;;;;42.70;31.88;;;;;;;;;;5062319;28;20058;-95
2022/03/22 00:55:53;;;;;;;47.45;33.45;;;;;;;;;;5062505;28;20135;-94
2022/03/22 00:58:19;;;;;;;46.67;32.15;;;;;;;;;;5062433;28;20094;-92
2022/03/22 01:00:46;;;;;;;48.53;32.90;;;;;;;;;;5062716;28;20102;-93
2022/03/22 01:03:13;;;;;;;46.17;32.28;;;;;;;;;;5062116;28;20074;-91
2022/03/22 01:05:39;;;;;;;45.78;31.35;;;;;;;;;;5078830;28;20048;-91
2022/03/22 01:08:07;;;;;;;50.33;31.85;;;;;;;;;;5062620;28;20044;-92
2022/03/22 01:10:34;;;;;;;44.38;32.67;;;;;;;;;;5061412;28;20056;-92
2022/03/22 01:13:01;;;;;;;45.42;32.65;;;;;;;;;;5061445;28;20056;-92
2022/03/22 01:15:33;;;;;;;44.35;31.83;;;5.40;99.90;;;;;;5061046;28;20558;-92
2022/03/22 01:18:05;;;;;;;47.95;32.42;;;5.30;99.90;;;;;;5062285;28;20126;-92
2022/03/22 01:20:34;;;;;;;44.47;31.77;;;5.30;99.90;;;;;;5079333;28;20048;-92
2022/03/22 01:23:03;;;;;;;48.58;31.38;;;5.30;99.90;;;;;;5045761;28;20043;-92
2022/03/22 01:25:30;;;;;;;50.22;33.22;;;5.30;99.90;;;;;;5078575;28;20052;-90
2022/03/22 01:27:57;;;;;;;51.05;34.10;;;5.20;99.90;;;;;;5077837;28;20096;-91
2022/03/22 01:30:27;;;;;;;47.92;33.30;;;5.60;99.90;;;;;;5060286;28;20052;-92
2022/03/22 01:32:55;;;;;;;52.13;35.50;;;5.30;99.90;;;;;;5045089;28;20039;-92
2022/03/22 01:35:22;;;;;;;44.47;31.05;;;5.20;99.90;;;;;;5061816;28;20044;-92
2022/03/22 01:37:49;;;;;;;49.78;34.63;;;5.30;99.90;;;;;;5062013;28;20494;-92
2022/03/22 01:40:17;;;;;;;42.45;30.50;;;5.20;99.90;;;;;;5078591;28;20131;-92
2022/03/22 01:42:43;;;;;;;46.95;32.47;;;5.30;99.90;;;;;;5062161;28;20040;-91
2022/03/22 01:45:10;;;;;;;43.08;32.10;;;5.20;99.90;;;;;;5061894;28;20051;-91
2022/03/22 01:47:37;;;;;;;53.55;32.42;;;5.30;99.90;;;;;;5078124;28;20507;-92
2022/03/22 01:50:05;;;;;;;48.42;34.55;;;5.20;99.90;;;;;;5062023;28;20050;-92
2022/03/22 01:52:36;;;;;;;51.20;34.08;;;5.40;99.90;;;;;;5062316;28;20063;-92
2022/03/22 01:55:03;;;;;;;49.15;34.00;;;4.60;99.90;;;;;;5062205;28;20097;-93
2022/03/22 01:57:33;;;;;;;46.92;32.28;;;5.10;99.90;;;;;;5029425;28;20048;-92
2022/03/22 02:00:00;;;;;;;45.47;32.80;;;3.90;99.90;;;;;;5078369;28;20083;-91
2022/03/22 02:08:00;;;;;;;48.88;33.08;;;5.30;99.90;;;;;;5077894;28;20087;-91
2022/03/22 02:10:27;;;;;;;48.38;32.70;;;5.20;99.90;;;;;;5045190;28;20465;-92
2022/03/22 02:12:53;;;;;;;48.83;33.17;;;5.20;99.90;;;;;;5061202;28;20066;-94
2022/03/22 02:15:19;;;;;;;47.60;33.08;;;5.10;99.90;;;;;;5060755;28;20044;-90
2022/03/22 02:17:46;;;;;;;46.45;32.28;;;5.10;99.90;;;;;;5027507;28;20542;-91
2022/03/22 02:20:15;;;;;;;45.65;32.33;;;5.10;99.90;;;;;;5042188;28;20043;-91
2022/03/22 02:22:55;;;;;;;45.03;32.75;;;5.00;99.90;;;;;;5059110;28;20044;-91
2022/03/22 02:25:21;;;;;;;46.05;31.80;;;6.40;99.90;;;;;;5059339;28;20055;-91
2022/03/22 02:27:49;;;;;;;42.95;31.88;;;5.50;99.90;;;;;;5061010;28;20104;-91
2022/03/22 02:30:16;;;;;;;49.53;33.00;;;5.20;99.90;;;;;;5077515;28;20044;-92
2022/03/22 02:32:53;;;;;;;47.33;32.45;;;5.00;99.90;;;;;;5077325;28;20051;-91
2022/03/22 02:35:20;;;;;;;50.70;34.15;;;5.10;99.90;;;;;;5060255;28;20048;-92
2022/03/22 02:37:46;;;;;;;48.03;32.60;;;5.20;99.90;;;;;;5077599;28;20258;-91
2022/03/22 02:40:13;;;;;;;49.50;33.88;;;5.00;99.90;;;;;;5060798;28;20044;-90
2022/03/22 02:42:53;;;;;;;48.75;33.00;;;5.20;99.90;;;;;;5059696;28;20044;-92
2022/03/22 02:45:21;;;;;;;49.30;33.35;;;5.30;99.90;;;;;;5077127;28;20105;-91
2022/03/22 02:47:46;;;;;;;46.30;32.22;;;5.80;99.90;;;;;;5043997;28;20047;-91
2022/03/22 02:50:13;;;;;;;47.72;33.25;;;5.10;99.90;;;;;;5044405;28;20056;-92
2022/03/22 02:52:40;;;;;;;48.50;32.35;;;5.20;99.90;;;;;;5044367;28;20483;-91
2022/03/22 02:55:08;;;;;;;49.60;33.60;;;5.10;99.90;;;;;;5060690;28;20488;-92
2022/03/22 02:57:35;;;;;;;47.22;32.03;;;5.10;99.90;;;;;;5060445;28;20101;-91
2022/03/22 03:00:03;;;;;;;46.88;33.05;;;5.70;99.90;;;;;;5075558;28;20055;-91
2022/03/22 03:02:29;;;;;;;49.55;33.08;;;5.60;99.90;;;;;;5060211;28;20041;-90
2022/03/22 03:04:55;;;;;;;49.65;32.90;;;5.20;99.90;;;;;;5059732;28;20044;-90
2022/03/22 03:07:21;;;;;;;47.10;31.42;;;5.40;99.90;;;;;;5075787;28;20040;-91
2022/03/22 03:09:47;;;;;;;47.53;32.95;;;5.10;99.90;;;;;;5060243;28;20070;-92
2022/03/22 03:12:13;;;;;;;48.53;33.80;;;5.30;99.90;;;;;;5044636;28;20056;-92
2022/03/22 03:14:38;;;;;;;50.72;33.13;;;5.10;99.90;;;;;;5048091;28;20139;-91
2022/03/22 03:17:16;;;;;;;49.65;33.88;;;5.10;99.90;;;;;;5064434;28;20398;-91
2022/03/22 03:19:42;;;;;;;47.85;32.75;;;4.90;99.90;;;;;;5064243;28;20193;-91
2022/03/22 03:22:09;;;;;;;50.83;34.30;;;5.50;99.90;;;;;;5063859;28;20112;-91
2022/03/22 03:24:38;;;;;;;52.67;33.97;;;5.10;99.90;;;;;;5064152;28;20048;-91
2022/03/22 03:27:04;;;;;;;47.17;32.47;;;5.00;99.90;;;;;;5080893;28;20089;-91
2022/03/22 03:29:30;;;;;;;48.47;32.63;;;5.00;99.90;;;;;;5047054;28;20059;-91
2022/03/22 03:31:56;;;;;;;47.75;32.47;;;5.00;99.90;;;;;;5030294;28;20502;-91
2022/03/22 03:34:22;;;;;;;48.42;32.25;;;5.00;99.90;;;;;;5063364;28;20048;-91
2022/03/22 03:36:48;;;;;;;46.17;32.45;;;5.20;99.90;;;;;;5079625;28;20112;-91
2022/03/22 03:39:14;;;;;;;46.03;32.00;;;5.40;99.90;;;;;;5063076;28;20040;-91
2022/03/22 03:41:59;;;;;;;49.20;33.00;;;4.00;99.90;;;;;;5062037;28;20376;-89
2022/03/22 03:47:13;;;;;;;46.40;32.05;;;5.50;99.90;;;;;;5079788;28;20169;-90
2022/03/22 03:49:46;;;;;;;46.33;30.77;;;5.60;99.90;;;;;;5063059;28;20048;-89
2022/03/22 03:52:15;;;;;;;43.03;30.48;;;5.70;99.90;;;;;;5079355;28;20096;-90
2022/03/22 03:54:42;;;;;;;47.08;30.10;;;5.60;99.90;;;;;;5062540;28;20102;-90
2022/03/22 03:57:09;;;;;;;46.30;31.48;;;5.60;99.90;;;;;;5060938;28;20059;-91
2022/03/22 03:59:37;;;;;;;48.97;33.17;;;5.60;99.90;;;;;;5061514;28;20052;-91
2022/03/22 04:02:06;;;;;;;48.30;31.83;;;5.70;99.90;;;;;;5046132;28;20062;-91
2022/03/22 04:04:35;;;;;;;45.92;31.00;;;5.70;99.90;;;;;;5062693;28;20052;-93
2022/03/22 04:07:02;;;;;;;45.13;29.98;;;5.70;99.90;;;;;;5062041;28;20040;-91
2022/03/22 04:09:28;;;;;;;48.67;30.27;;;8.20;99.90;;;;;;5061934;28;20071;-92
2022/03/22 04:11:54;;;;;;;47.47;31.33;;;6.00;99.90;;;;;;5061462;28;20413;-92
2022/03/22 04:14:20;;;;;;;44.20;31.40;;;5.60;99.90;;;;;;5044689;28;20457;-91
2022/03/22 04:16:46;;;;;;;45.42;31.17;;;5.60;99.90;;;;;;5062384;28;20479;-90
2022/03/22 04:19:12;;;;;;;43.85;30.30;;;5.60;99.90;;;;;;5045160;28;20047;-91
2022/03/22 04:21:39;;;;;;;45.40;30.02;;;5.80;99.90;;;;;;5061585;28;20051;-90
2022/03/22 04:24:10;;;;;;;48.58;30.13;;;5.60;99.90;;;;;;5060805;28;20055;-91
2022/03/22 04:26:37;;;;;;;;;;;5.70;99.90;;;;;;5061975;28;20050;-91
2022/03/22 04:34:56;;;;;;;53.03;30.17;;;5.90;99.90;;;;;;5089335;28;20095;-90
2022/03/22 04:37:22;;;;;;;43.22;29.73;;;5.50;99.90;;;;;;5061804;28;20044;-91
2022/03/22 04:39:48;;;;;;;49.22;30.80;;;5.90;99.90;;;;;;5045351;28;20113;-91
2022/03/22 04:42:14;;;;;;;49.00;31.55;;;5.70;99.90;;;;;;5078422;28;20080;-91
2022/03/22 04:44:42;;;;;;;46.78;30.20;;;5.60;99.90;;;;;;5044954;28;20048;-89
2022/03/22 04:47:08;;;;;;;42.90;30.38;;;5.50;99.90;;;;;;5061248;28;20376;-89
2022/03/22 04:49:34;;;;;;;45.08;30.63;;;5.40;99.90;;;;;;5060594;28;20043;-90
2022/03/22 04:57:31;;;;;;;46.13;31.70;;;5.60;99.90;;;;;;5063232;28;20475;-90
2022/03/22 05:00:00;;;;;;;42.30;30.80;;;5.40;99.90;;;;;;5045300;28;20087;-91
2022/03/22 05:02:25;;;;;;;43.53;31.05;;;5.60;99.90;;;;;;5045583;28;20075;-90
2022/03/22 05:04:51;;;;;;;54.13;31.90;;;5.40;99.90;;;;;;5061863;28;20047;-90
2022/03/22 05:07:17;;;;;;;44.72;31.20;;;5.50;99.90;;;;;;5078569;28;20400;-90
2022/03/22 05:09:43;;;;;;;50.75;32.67;;;5.60;99.90;;;;;;5045759;28;20044;-90
2022/03/22 05:12:13;;;;;;;46.40;31.80;;;5.70;99.90;;;;;;5062789;28;20398;-90
2022/03/22 05:14:41;;;;;;;45.80;31.83;;;5.40;99.90;;;;;;5047650;28;20047;-90
2022/03/22 05:17:06;;;;;;;45.03;30.23;;;5.50;99.90;;;;;;5065281;28;20113;-90
2022/03/22 05:19:32;;;;;;;46.13;30.90;;;5.40;99.90;;;;;;5048968;28;20622;-90
2022/03/22 05:21:58;;;;;;;48.30;32.55;;;5.80;99.90;;;;;;5082687;28;20044;-90
2022/03/22 05:24:24;;;;;;;46.22;31.98;;;5.50;99.90;;;;;;5048624;28;20452;-91
2022/03/22 05:26:50;;;;;;;59.42;33.92;;;5.50;99.90;;;;;;5063833;28;20077;-90
2022/03/22 05:29:17;;;;;;;47.47;31.70;;;5.50;99.90;;;;;;5065255;28;20059;-90
2022/03/22 05:31:45;;;;;;;51.13;32.47;;;5.40;99.90;;;;;;5081382;28;20036;-90
2022/03/22 05:34:11;;;;;;;50.55;33.40;;;5.40;99.90;;;;;;5062495;28;20047;-89
2022/03/22 05:36:36;;;;;;;44.85;31.75;;;5.30;99.90;;;;;;5045645;28;20052;-90
2022/03/22 05:39:02;;;;;;;45.10;32.65;;;5.30;99.90;;;;;;5079151;28;20040;-90
2022/03/22 05:41:28;;;;;;;50.40;33.92;;;5.30;99.90;;;;;;5062444;28;20047;-89
2022/03/22 05:43:54;;;;;;;46.47;30.95;;;5.40;99.90;;;;;;5061877;28;20048;-90
2022/03/22 05:46:20;;;;;;;48.67;32.70;;;5.30;99.90;;;;;;5060598;28;20055;-92
2022/03/22 05:48:50;;;;;;;45.80;31.23;;;5.50;99.90;;;;;;5060852;28;20150;-91
2022/03/22 05:51:17;;;;;;;51.38;31.98;;;5.20;99.90;;;;;;5061193;28;20098;-91
2022/03/22 05:53:44;;;;;;;46.35;32.40;;;5.50;99.90;;;;;;5060492;28;20127;-90
2022/03/22 05:56:11;;;;;;;47.50;31.58;;;5.40;99.90;;;;;;5060847;28;20055;-90
2022/03/22 05:58:36;;;;;;;44.17;32.13;;;5.40;99.90;;;;;;5060282;28;20052;-89
2022/03/22 06:01:03;;;;;;;43.10;30.25;;;5.30;99.90;;;;;;5027923;28;20131;-89
2022/03/22 06:03:28;;;;;;;44.65;30.70;;;5.40;99.90;;;;;;5077648;28;20048;-91
2022/03/22 06:05:54;;;;;;;48.72;33.90;;;5.20;99.90;;;;;;5063292;28;20055;-89
2022/03/22 06:08:20;;;;;;;46.28;29.88;;;5.20;99.90;;;;;;5063539;28;20048;-90
2022/03/22 06:10:46;;;;;;;46.05;31.48;;;5.60;99.90;;;;;;5058496;28;20193;-90
2022/03/22 06:13:12;;;;;;;44.05;29.85;;;4.30;99.90;;;;;;5059685;28;20052;-91
2022/03/22 06:15:38;;;;;;;43.40;30.65;;;5.20;99.90;;;;;;5060401;28;20052;-91
2022/03/22 06:18:09;;;;;;;47.53;31.33;;;5.40;99.90;;;;;;5077012;28;20792;-91
2022/03/22 06:20:37;;;;;;;42.53;30.37;;;6.20;99.90;;;;;;5044193;28;20047;-90
2022/03/22 06:23:06;;;;;;;45.53;31.65;;;5.30;99.90;;;;;;5059874;28;20055;-90
2022/03/22 06:25:34;;;;;;;50.63;32.00;;;5.20;99.90;;;;;;5060654;28;20051;-90
2022/03/22 06:28:01;;;;;;;46.05;32.30;;;5.20;99.90;;;;;;5060065;28;20136;-90
2022/03/22 06:30:27;;;;;;;45.30;30.83;;;5.40;99.90;;;;;;5059499;28;20491;-91
2022/03/22 06:32:55;;;;;;;46.97;31.20;;;5.20;99.90;;;;;;5059846;28;20044;-89
2022/03/22 06:35:29;;;;;;;43.47;32.38;;;5.50;99.90;;;;;;5059565;28;20391;-90
2022/03/22 06:37:56;;;;;;;46.25;32.97;;;5.30;99.90;;;;;;5042976;28;20135;-91
2022/03/22 06:40:28;;;;;;;49.42;34.58;;;4.90;99.90;;;;;;5043050;28;20109;-91
2022/03/22 06:42:58;;;;;;;47.67;32.22;;;5.90;99.90;;;;;;5059633;28;20040;-90
2022/03/22 06:45:26;;;;;;;50.15;34.42;;;5.50;99.90;;;;;;5076084;28;20059;-91
2022/03/22 06:47:52;;;;;;;47.42;32.00;;;5.60;99.90;;;;;;5059183;28;20047;-89
2022/03/22 06:50:19;;;;;;;46.13;32.15;;;5.70;99.90;;;;;;5060313;28;20048;-88
2022/03/22 06:52:47;;;;;;;48.13;33.13;;;5.80;99.90;;;;;;5058644;28;20124;-90
2022/03/22 06:55:18;;;;;;;47.85;32.65;;;6.00;99.90;;;;;;5042743;28;20044;-91
2022/03/22 06:57:44;;;;;;;46.75;30.80;;;6.50;99.90;;;;;;5076173;28;20059;-91
2022/03/22 07:00:17;;;;;;;44.50;32.75;;;6.20;99.90;;;;;;5094233;28;20052;-91
2022/03/22 07:02:43;;;;;;;45.42;32.92;;;6.30;99.90;;;;;;5060525;28;20044;-92
2022/03/22 07:05:10;;;;;;;48.45;33.35;;;6.10;99.90;;;;;;5061515;28;20051;-91
2022/03/22 07:07:36;;;;;;;45.88;31.27;;;6.80;99.90;;;;;;5061204;28;20056;-91
2022/03/22 07:10:07;;;;;;;45.20;31.83;;;6.60;99.90;;;;;;5045282;28;20059;-91
2022/03/22 07:12:33;;;;;;;48.00;31.52;;;6.70;99.90;;;;;;5060789;28;20055;-92
2022/03/22 07:15:01;;;;;;;47.80;33.10;;;6.80;99.90;;;;;;5061496;28;20044;-92
2022/03/22 07:17:27;;;;;;;51.58;33.42;;;7.00;99.90;;;;;;5028918;28;20067;-92
2022/03/22 07:19:53;;;;;;;44.92;31.40;;;7.00;99.90;;;;;;5027840;28;20040;-93
2022/03/22 07:22:19;;;;;;;49.88;32.65;;;7.30;99.90;;;;;;5028023;28;20747;-93
2022/03/22 07:24:46;;;;;;;44.58;31.00;;;7.40;99.90;;;;;;5044088;28;20069;-91
2022/03/22 07:27:12;;;;;;;40.30;29.30;;;7.50;99.90;;;;;;5043834;28;20111;-90
2022/03/22 07:29:38;;;;;;;45.75;31.50;;;7.70;99.90;;;;;;5060355;28;20136;-91
2022/03/22 07:32:07;;;;;;;47.78;31.08;;;7.80;99.90;;;;;;5043038;28;20186;-92
2022/03/22 07:34:33;;;;;;;45.72;30.23;;;8.00;99.90;;;;;;5077172;28;20047;-91
2022/03/22 07:37:01;;;;;;;47.20;30.55;;;8.20;99.90;;;;;;5044215;28;20059;-91
2022/03/22 07:39:29;;;;;;;46.97;31.70;;;8.70;99.90;;;;;;5044105;28;20139;-91
2022/03/22 07:41:55;;;;;;;46.45;31.75;;;8.50;99.90;;;;;;5061054;28;20109;-91
2022/03/22 07:44:24;;;;;;;47.80;30.73;;;8.50;99.90;;;;;;5077803;28;20048;-91
2022/03/22 07:46:50;;;;;;;43.65;29.98;;;8.60;99.90;;;;;;5060480;28;20055;-92
2022/03/22 07:54:44;;;;;;;40.92;28.90;;;9.10;99.90;;;;;;5077388;28;20135;-92
2022/03/22 07:57:10;;;;;;;40.97;28.60;;;9.80;99.90;;;;;;5043299;28;20091;-92
2022/03/22 07:59:36;;;;;;;41.95;28.80;;;9.60;99.90;;;;;;5046694;28;20051;-91
2022/03/22 08:02:06;;;;;;;40.72;29.27;;;9.50;99.90;;;;;;5063795;28;20502;-91
2022/03/22 08:04:34;;;;;;;45.47;28.73;;;9.70;99.90;;;;;;5048789;28;20113;-90
2022/03/22 08:07:00;;;;;;;42.40;29.50;;;9.80;99.90;;;;;;5080368;28;20399;-91
2022/03/22 08:09:26;;;;;;;39.90;28.20;;;10.00;99.90;;;;;;5046746;28;20071;-92
2022/03/22 08:11:52;;;;;;;40.20;26.88;;;10.30;99.90;;;;;;5063474;28;20048;-91
2022/03/22 08:14:20;;;;;;;40.20;27.80;;;10.20;99.90;;;;;;5079629;28;20048;-91
2022/03/22 08:16:46;;;;;;;39.10;26.65;;;10.40;99.90;;;;;;5078416;28;20044;-90
2022/03/22 08:19:17;;;;;;;38.08;27.80;;;10.40;99.90;;;;;;5061609;28;20052;-93
2022/03/22 08:21:43;;;;;;;41.78;27.73;;;10.70;99.90;;;;;;5047098;28;20556;-92
2022/03/22 08:24:12;;;;;;;39.78;25.92;;;10.80;99.90;;;;;;5046979;28;20091;-92
2022/03/22 08:26:39;;;;;;;38.17;27.05;;;11.00;99.90;;;;;;5063906;28;20062;-92
2022/03/22 08:29:06;;;;;;;39.10;26.33;;;10.90;99.90;;;;;;5079791;28;20534;-91
2022/03/22 08:31:31;;;;;;;37.70;25.85;;;10.40;99.90;;;;;;5046353;28;20059;-90
2022/03/22 08:33:57;;;;;;;37.65;25.13;;;11.70;99.90;;;;;;5062656;28;20429;-92
2022/03/22 08:36:24;;;;;;;32.83;24.58;;;11.50;99.90;;;;;;5063342;28;20054;-92
2022/03/22 08:38:52;;;;;;;34.35;24.90;;;11.50;99.90;;;;;;5079607;28;20052;-91
2022/03/22 08:41:17;;;;;;;36.85;24.95;;;12.00;99.90;;;;;;5063437;28;20044;-93
2022/03/22 08:43:43;;;;;;;37.60;24.15;;;12.20;99.90;;;;;;5063007;28;20483;-91
2022/03/22 08:46:09;;;;;;;38.53;24.83;;;12.10;99.90;;;;;;5046418;28;20067;-92
2022/03/22 08:48:37;;;;;;;31.33;22.83;;;12.60;99.90;;;;;;5062698;28;20052;-92
2022/03/22 08:51:05;;;;;;;31.45;22.35;;;12.50;99.90;;;;;;5046367;28;20073;-92
2022/03/22 08:53:31;;;;;;;31.33;21.98;;;12.60;99.90;;;;;;5078864;28;20052;-92
2022/03/22 08:55:56;;;;;;;32.15;23.83;;;13.00;99.90;;;;;;5077741;28;20384;-91
2022/03/22 08:58:22;;;;;;;33.20;22.95;;;12.80;99.90;;;;;;5063016;28;20064;-91
2022/03/22 09:00:48;;;;;;;31.27;21.65;;;12.90;99.90;;;;;;5046381;28;20127;-91
2022/03/22 09:03:15;;;;;;;30.80;22.42;;;11.80;99.90;;;;;;5062763;28;20056;-92
2022/03/22 09:08:25;;;;;;;30.38;20.85;;;13.40;99.90;;;;;;5066514;28;20079;-92
2022/03/22 09:10:51;;;;;;;29.40;21.08;;;13.50;99.90;;;;;;5061361;28;20040;-91
2022/03/22 09:13:20;;;;;;;32.13;20.15;;;14.00;99.90;;;;;;5045521;28;20138;-92
2022/03/22 09:15:51;;;;;;;28.23;19.90;;;13.70;99.90;;;;;;5062018;28;20047;-91
2022/03/22 09:18:18;;;;;;;27.80;19.25;;;14.00;99.90;;;;;;5078616;28;20048;-92
2022/03/22 09:20:45;;;;;;;29.90;19.65;;;14.20;99.90;;;;;;5061804;28;20117;-91
2022/03/22 09:23:12;;;;;;;30.42;20.95;;;14.40;99.90;;;;;;5062406;28;20075;-92
2022/03/22 09:25:43;;;;;;;31.45;22.27;;;14.60;99.90;;;;;;5061730;28;20071;-92
2022/03/22 09:28:10;;;;;;;31.15;21.40;;;14.40;99.90;;;;;;5078998;28;20054;-92
2022/03/22 09:30:38;;;;;;;29.95;21.30;;;14.40;99.90;;;;;;5078283;28;20461;-92
2022/03/22 09:33:04;;;;;;;30.63;21.73;;;14.50;99.90;;;;;;5061669;28;20044;-89
2022/03/22 09:35:31;;;;;;;26.48;19.83;;;14.60;99.90;;;;;;5044363;28;20047;-92
2022/03/22 09:37:59;;;;;;;32.58;22.60;;;14.60;99.90;;;;;;5059617;28;20044;-92
2022/03/22 09:40:26;;;;;;;30.15;20.92;;;13.70;99.90;;;;;;5044150;28;20552;-92
2022/03/22 09:42:54;;;;;;;28.98;21.38;;;15.00;99.90;;;;;;5061432;28;20048;-92
2022/03/22 09:45:29;;;;;;;28.92;20.27;;;15.00;99.90;;;;;;5062176;28;20066;-92
2022/03/22 09:47:56;;;;;;;29.73;20.65;;;15.00;99.90;;;;;;5062327;28;20056;-92
2022/03/22 09:51:44;;;;;;;31.75;21.13;;;13.40;99.90;;;;;;5045702;28;20093;-92
2022/03/22 09:53:15;;;;;;;29.05;20.60;;;15.00;99.90;;;;;;5078563;28;20064;-92
2022/03/22 09:55:41;;;;;;;29.80;21.13;;;15.20;99.90;;;;;;5078429;28;20048;-92
2022/03/22 09:58:07;;;;;;;30.73;21.33;;;15.30;99.90;;;;;;5061968;28;20047;-92
2022/03/22 10:00:33;;;;;;;32.40;20.77;;;15.50;99.90;;;;;;5045295;28;20087;-92
2022/03/22 10:02:59;;;;;;;27.55;20.30;;;15.90;99.90;;;;;;5061199;28;20109;-93
2022/03/22 10:05:29;;;;;;;27.23;19.45;;;15.90;99.90;;;;;;5062511;28;20048;-92
2022/03/22 10:08:08;;;;;;;27.83;20.27;;;15.90;99.90;;;;;;5061762;28;20044;-92
2022/03/22 10:10:35;;;;;;;27.70;19.83;;;15.90;99.90;;;;;;5061783;28;20529;-92
2022/03/22 10:13:03;;;;;;;26.42;18.52;;;16.10;99.90;;;;;;5061973;28;20563;-92
2022/03/22 10:15:36;;;;;;;27.52;18.67;;;16.00;99.40;;;;;;5061807;28;20093;-92
2022/03/22 10:18:06;;;;;;;30.35;20.13;;;16.40;99.10;;;;;;5078502;28;20127;-92
2022/03/22 10:20:34;;;;;;;27.75;19.50;;;16.40;99.90;;;;;;5061656;28;20485;-92
2022/03/22 10:23:01;;;;;;;27.60;19.58;;;15.70;99.10;;;;;;5077144;28;20083;-92
2022/03/22 10:25:31;;;;;;;28.38;19.30;;;16.80;98.30;;;;;;5061541;28;20036;-90
2022/03/22 10:27:58;;;;;;;27.95;20.77;;;16.50;97.90;;;;;;5028747;28;20044;-90
2022/03/22 10:30:24;;;;;;;27.27;19.17;;;16.60;98.30;;;;;;5059958;28;20080;-92
2022/03/22 10:32:51;;;;;;;24.92;19.60;;;16.60;98.90;;;;;;5060410;28;20079;-92
2022/03/22 10:35:21;;;;;;;29.67;22.17;;;17.00;98.90;;;;;;5062175;28;20490;-93
2022/03/22 10:37:53;;;;;;;31.53;22.57;;;17.10;99.50;;;;;;5062125;28;20066;-93
2022/03/22 10:40:25;;;;;;;33.30;22.05;;;15.60;99.70;;;;;;5061872;28;20070;-93
2022/03/22 10:42:54;;;;;;;29.48;22.67;;;17.20;99.90;;;;;;5061906;28;20079;-92
2022/03/22 10:45:20;;;;;;;30.80;21.13;;;17.70;99.90;;;;;;5061307;28;20130;-92
2022/03/22 10:47:46;;;;;;;35.08;23.67;;;17.70;99.90;;;;;;5062518;28;20106;-92
2022/03/22 10:50:12;;;;;;;29.70;22.40;;;17.40;99.90;;;;;;5077299;28;20052;-93
2022/03/22 10:52:52;;;;;;;36.70;23.67;;;17.60;99.90;;;;;;5061681;28;20082;-93
2022/03/22 10:55:21;;;;;;;34.15;22.52;;;17.70;98.80;;;;;;5061497;28;20047;-93
2022/03/22 10:57:53;;;;;;;30.02;22.23;;;17.70;99.90;;;;;;5061659;28;20052;-92
2022/03/22 11:00:22;;;;;;;30.20;23.20;;;17.70;99.90;;;;;;5078968;28;20044;-92
2022/03/22 11:02:53;;;;;;;28.48;21.85;;;17.40;98.40;;;;;;5061756;28;20051;-92
2022/03/22 11:05:24;;;;;;;28.15;22.02;;;17.90;99.30;;;;;;5077949;28;20533;-92
2022/03/22 11:07:52;;;;;;;30.92;22.13;;;17.90;99.10;;;;;;5061053;28;20078;-91
2022/03/22 11:10:19;;;;;;;36.22;21.20;;;17.70;97.30;;;;;;5077807;28;20056;-93
2022/03/22 11:12:46;;;;;;;28.42;22.45;;;16.20;98.10;;;;;;5044058;28;20056;-92
2022/03/22 11:15:14;;;;;;;30.52;22.52;;;17.90;98.70;;;;;;5060733;28;20115;-91
2022/03/22 11:17:42;;;;;;;32.50;22.50;;;18.30;98.20;;;;;;5059684;28;20044;-92
2022/03/22 11:20:11;;;;;;;29.73;22.27;;;17.90;98.40;;;;;;5076275;28;20043;-93
2022/03/22 11:22:48;;;;;;;28.77;20.80;;;18.10;98.40;;;;;;5060520;28;20050;-93
2022/03/22 11:25:18;;;;;;;27.38;21.45;;;18.50;97.60;;;;;;5076743;28;20050;-93
2022/03/22 11:27:56;;;;;;;28.40;21.27;;;18.40;97.30;;;;;;5061553;28;20105;-94
2022/03/22 11:30:22;;;;;;;29.90;22.27;;;18.60;97.50;;;;;;5061172;28;20158;-94
2022/03/22 11:35:44;;;;;;;30.90;20.80;;;20.70;97.00;;;;;;5081506;28;20056;-92
2022/03/22 11:38:44;;;;;;;32.00;21.63;;;19.50;97.00;;;;;;5064856;28;20051;-93
2022/03/22 11:44:11;;;;;;;;;;;18.90;94.70;;;;;;5081155;28;20091;-91
2022/03/22 11:46:38;;;;;;;31.48;21.00;;;19.00;94.30;;;;;;5063291;28;19946;-91
2022/03/22 11:49:21;;;;;;;28.70;20.10;;;19.30;96.60;;;;;;5063648;28;20051;-93
2022/03/22 11:51:50;;;;;;;30.50;20.50;;;19.40;92.00;;;;;;5063562;28;20048;-90
2022/03/22 11:54:16;;;;;;;25.92;19.55;;;19.80;93.30;;;;;;5079982;28;20052;-91
2022/03/22 11:56:47;;;;;;;31.92;19.27;;;19.50;93.90;;;;;;5046341;28;20056;-91
2022/03/22 11:59:20;;;;;;;28.30;20.00;;;19.70;93.80;;;;;;5080268;28;20134;-92
2022/03/22 12:01:56;;;;;;;28.08;19.88;;;;;;;;;;5064692;28;20087;-91
2022/03/22 12:04:38;;;;;;;30.73;21.95;;;19.90;92.20;;;;;;5065149;28;20074;-93
2022/03/22 12:07:06;;;;;;;25.80;19.27;;;20.20;91.00;;;;;;5063365;28;20044;-90
2022/03/22 12:09:38;;;;;;;30.88;21.08;;;20.20;92.70;;;;;;5080241;28;20415;-92
2022/03/22 12:12:06;;;;;;;25.67;19.20;;;21.40;95.40;;;;;;5064483;28;20132;-92
2022/03/22 12:14:36;;;;;;;31.77;20.63;;;21.40;93.20;;;;;;5047588;28;20048;-92
2022/03/22 12:17:04;;;;;;;29.55;20.55;;;20.80;92.00;;;;;;5063911;28;20075;-92
2022/03/22 12:19:32;;;;;;;30.00;20.65;;;20.80;92.40;;;;;;5079983;28;20105;-90
2022/03/22 12:22:00;;;;;;;26.98;20.50;;;21.70;94.90;;;;;;5062686;28;20055;-92
2022/03/22 12:24:36;;;;;;;28.70;19.13;;;21.00;91.00;;;;;;5063754;28;20140;-92
2022/03/22 12:27:11;;;;;;;28.33;20.30;;;20.80;90.50;;;;;;5063888;28;20054;-93
2022/03/22 12:29:42;;;;;;;27.98;21.60;;;20.90;91.00;;;;;;5079263;28;20109;-93
2022/03/22 12:32:20;;;;;;;27.63;20.27;;;21.30;91.20;;;;;;5062410;28;20036;-93
2022/03/22 12:34:47;;;;;;;29.60;21.23;;;21.50;90.30;;;;;;5079177;28;20092;-93
2022/03/22 12:37:15;;;;;;;29.92;20.88;;;19.80;89.60;;;;;;5062472;28;20055;-91
2022/03/22 12:39:43;;;;;;;31.52;21.85;;;21.70;89.00;;;;;;5079929;28;20130;-92
2022/03/22 12:42:10;;;;;;;29.05;21.48;;;21.90;86.20;;;;;;5062976;28;20100;-93
2022/03/22 12:44:37;;;;;;;28.17;20.35;;;22.00;88.60;;;;;;5078257;28;20095;-92
2022/03/22 12:47:05;;;;;;;29.17;22.00;;;22.00;86.40;;;;;;5062284;28;20044;-90
2022/03/22 12:49:33;;;;;;;30.10;22.10;;;21.90;85.00;;;;;;5061822;28;20048;-93
2022/03/22 12:52:00;;;;;;;28.70;21.10;;;21.80;85.90;;;;;;5078637;28;20048;-93
2022/03/22 12:54:34;;;;;;;31.15;21.52;;;21.90;86.40;;;;;;5044182;28;20066;-91
2022/03/22 12:57:01;;;;;;;25.30;19.95;;;22.90;83.80;;;;;;5061247;28;20048;-93
2022/03/22 12:59:30;;;;;;;31.17;22.90;;;22.00;83.40;;;;;;5078542;28;20052;-91
2022/03/22 13:01:58;;;;;;;28.17;22.15;;;21.30;83.20;;;;;;5061817;28;20491;-92
2022/03/22 13:04:30;;;;;;;34.55;22.30;;;22.40;82.50;;;;;;5046398;28;20044;-92
2022/03/22 13:06:57;;;;;;;26.10;20.25;;;22.60;81.10;;;;;;5061619;28;20044;-91
2022/03/22 13:12:12;;;;;;;26.38;20.92;;;23.00;82.70;;;;;;5079474;28;20064;-93
2022/03/22 13:17:22;;;;;;;32.30;21.88;;;22.60;78.10;;;;;;5064711;28;20165;-93
2022/03/22 13:19:48;;;;;;;29.05;21.50;;;22.20;78.80;;;;;;5046338;28;20052;-92
2022/03/22 13:22:18;;;;;;;33.45;22.23;;;22.00;79.50;;;;;;5045569;28;20044;-92
2022/03/22 13:24:44;;;;;;;;;;;21.70;78.40;;;;;;5046464;28;20052;-92
2022/03/22 13:27:11;;;;;;;27.67;21.20;;;21.90;80.10;;;;;;5062720;28;19924;-92